sensor_id;sensor_type;location;lat;lon;timestamp;pressure;altitude;pressure_sealevel;temperature;humidity
40918;BME280;26644;50.248;19.032;2023-03-13T00:02:17;97627.53;;;5.04;58.60
40918;BME280;26644;50.248;19.032;2023-03-13T00:05:22;97630.31;;;5.15;58.32
40918;BME280;26644;50.248;19.032;2023-03-13T00:08:28;97624.84;;;5.09;58.77
40918;BME280;26644;50.248;19.032;2023-03-13T00:11:34;97615.28;;;5.02;58.99
40918;BME280;26644;50.248;19.032;2023-03-13T00:14:39;97627.28;;;5.11;59.32
40918;BME280;26644;50.248;19.032;2023-03-13T00:17:47;97615.84;;;5.04;59.90
40918;BME280;26644;50.248;19.032;2023-03-13T00:20:57;97618.91;;;5.18;59.80
40918;BME280;26644;50.248;19.032;2023-03-13T00:24:03;97609.84;;;5.02;60.49
40918;BME280;26644;50.248;19.032;2023-03-13T00:27:08;97622.44;;;5.13;60.59
40918;BME280;26644;50.248;19.032;2023-03-13T00:30:14;97603.59;;;5.01;61.01
40918;BME280;26644;50.248;19.032;2023-03-13T00:33:21;97603.41;;;5.18;61.01
40918;BME280;26644;50.248;19.032;2023-03-13T00:36:28;97591.16;;;5.16;60.99
40918;BME280;26644;50.248;19.032;2023-03-13T00:39:36;97591.75;;;5.28;61.03
40918;BME280;26644;50.248;19.032;2023-03-13T00:42:41;97583.00;;;5.21;61.11
40918;BME280;26644;50.248;19.032;2023-03-13T00:45:46;97583.28;;;5.24;61.37
40918;BME280;26644;50.248;19.032;2023-03-13T00:48:54;97568.03;;;5.18;61.77
40918;BME280;26644;50.248;19.032;2023-03-13T00:51:59;97582.19;;;5.25;62.08
40918;BME280;26644;50.248;19.032;2023-03-13T00:55:06;97581.38;;;5.20;62.73
40918;BME280;26644;50.248;19.032;2023-03-13T00:58:11;97576.25;;;5.28;62.53
40918;BME280;26644;50.248;19.032;2023-03-13T01:01:19;97578.41;;;5.26;62.95
40918;BME280;26644;50.248;19.032;2023-03-13T01:04:28;97565.91;;;5.31;62.97
40918;BME280;26644;50.248;19.032;2023-03-13T01:07:33;97554.44;;;5.23;63.51
40918;BME280;26644;50.248;19.032;2023-03-13T01:10:38;97551.47;;;5.25;63.59
40918;BME280;26644;50.248;19.032;2023-03-13T01:13:44;97569.69;;;5.30;63.96
40918;BME280;26644;50.248;19.032;2023-03-13T01:16:49;97573.53;;;5.34;64.27
40918;BME280;26644;50.248;19.032;2023-03-13T01:19:58;97574.88;;;5.26;64.60
40918;BME280;26644;50.248;19.032;2023-03-13T01:23:02;97584.94;;;5.31;64.76
40918;BME280;26644;50.248;19.032;2023-03-13T01:26:08;97580.59;;;5.35;65.01
40918;BME280;26644;50.248;19.032;2023-03-13T01:29:13;97599.13;;;5.33;65.15
40918;BME280;26644;50.248;19.032;2023-03-13T01:32:18;97587.44;;;5.42;64.72
40918;BME280;26644;50.248;19.032;2023-03-13T01:35:26;97586.94;;;5.56;64.66
40918;BME280;26644;50.248;19.032;2023-03-13T01:38:32;97592.69;;;5.59;64.59
40918;BME280;26644;50.248;19.032;2023-03-13T01:41:37;97600.88;;;5.65;64.63
40918;BME280;26644;50.248;19.032;2023-03-13T01:44:49;97610.69;;;5.66;64.98
40918;BME280;26644;50.248;19.032;2023-03-13T01:47:56;97599.25;;;5.69;64.76
40918;BME280;26644;50.248;19.032;2023-03-13T01:51:26;97585.06;;;5.67;65.27
40918;BME280;26644;50.248;19.032;2023-03-13T01:54:38;97565.13;;;5.45;65.92
40918;BME280;26644;50.248;19.032;2023-03-13T01:57:51;97587.50;;;5.58;65.79
40918;BME280;26644;50.248;19.032;2023-03-13T02:00:59;97583.16;;;5.57;66.05
40918;BME280;26644;50.248;19.032;2023-03-13T02:04:06;97594.06;;;5.62;66.24
40918;BME280;26644;50.248;19.032;2023-03-13T02:07:17;97586.94;;;5.51;66.69
40918;BME280;26644;50.248;19.032;2023-03-13T02:10:30;97584.22;;;5.56;67.17
40918;BME280;26644;50.248;19.032;2023-03-13T02:13:37;97592.13;;;5.63;67.19
40918;BME280;26644;50.248;19.032;2023-03-13T02:16:42;97593.50;;;5.60;67.37
40918;BME280;26644;50.248;19.032;2023-03-13T02:19:52;97603.03;;;5.63;67.09
40918;BME280;26644;50.248;19.032;2023-03-13T02:23:09;97601.16;;;5.63;67.20
40918;BME280;26644;50.248;19.032;2023-03-13T02:26:24;97603.81;;;5.53;68.17
40918;BME280;26644;50.248;19.032;2023-03-13T02:29:30;97603.31;;;5.61;67.87
40918;BME280;26644;50.248;19.032;2023-03-13T02:32:36;97615.56;;;5.64;68.19
40918;BME280;26644;50.248;19.032;2023-03-13T02:35:44;97622.41;;;5.71;68.04
40918;BME280;26644;50.248;19.032;2023-03-13T02:38:55;97624.84;;;5.68;68.59
40918;BME280;26644;50.248;19.032;2023-03-13T02:42:08;97624.84;;;5.73;68.44
40918;BME280;26644;50.248;19.032;2023-03-13T02:45:15;97635.72;;;5.68;68.83
40918;BME280;26644;50.248;19.032;2023-03-13T02:48:31;97628.41;;;5.78;68.48
40918;BME280;26644;50.248;19.032;2023-03-13T02:51:41;97636.31;;;5.85;68.34
40918;BME280;26644;50.248;19.032;2023-03-13T02:54:56;97628.44;;;5.84;68.48
40918;BME280;26644;50.248;19.032;2023-03-13T02:58:08;97636.88;;;5.82;68.59
40918;BME280;26644;50.248;19.032;2023-03-13T03:01:13;97635.50;;;5.80;69.01
40918;BME280;26644;50.248;19.032;2023-03-13T03:04:20;97636.31;;;5.85;68.74
40918;BME280;26644;50.248;19.032;2023-03-13T03:07:30;97629.25;;;5.84;68.96
40918;BME280;26644;50.248;19.032;2023-03-13T03:10:35;97631.72;;;5.91;68.84
40918;BME280;26644;50.248;19.032;2023-03-13T03:13:43;97620.25;;;5.84;69.17
40918;BME280;26644;50.248;19.032;2023-03-13T03:16:51;97629.25;;;5.94;69.07
40918;BME280;26644;50.248;19.032;2023-03-13T03:19:56;97621.09;;;5.84;69.45
40918;BME280;26644;50.248;19.032;2023-03-13T03:23:01;97633.09;;;5.88;69.47
40918;BME280;26644;50.248;19.032;2023-03-13T03:26:09;97623.53;;;5.81;69.62
40918;BME280;26644;50.248;19.032;2023-03-13T03:29:16;97631.16;;;5.84;69.79
40918;BME280;26644;50.248;19.032;2023-03-13T03:32:25;97634.69;;;5.89;69.73
40918;BME280;26644;50.248;19.032;2023-03-13T03:35:29;97634.72;;;5.84;70.46
40918;BME280;26644;50.248;19.032;2023-03-13T03:38:40;97636.56;;;5.73;71.08
40918;BME280;26644;50.248;19.032;2023-03-13T03:41:47;97629.50;;;5.83;70.66
40918;BME280;26644;50.248;19.032;2023-03-13T03:44:55;97639.59;;;5.82;70.93
40918;BME280;26644;50.248;19.032;2023-03-13T03:48:00;97637.16;;;5.86;70.66
40918;BME280;26644;50.248;19.032;2023-03-13T03:51:06;97621.63;;;5.86;70.42
40918;BME280;26644;50.248;19.032;2023-03-13T03:54:14;97633.91;;;5.94;70.40
40918;BME280;26644;50.248;19.032;2023-03-13T03:57:20;97630.63;;;5.97;70.28
40918;BME280;26644;50.248;19.032;2023-03-13T04:00:28;97639.34;;;5.94;70.40
40918;BME280;26644;50.248;19.032;2023-03-13T04:03:34;97633.09;;;5.88;70.62
40918;BME280;26644;50.248;19.032;2023-03-13T04:06:39;97628.44;;;5.84;70.82
40918;BME280;26644;50.248;19.032;2023-03-13T04:09:46;97632.50;;;5.81;71.10
40918;BME280;26644;50.248;19.032;2023-03-13T04:12:59;97623.78;;;5.74;71.50
40918;BME280;26644;50.248;19.032;2023-03-13T04:16:10;97632.53;;;5.86;71.29
40918;BME280;26644;50.248;19.032;2023-03-13T04:19:16;97638.53;;;5.93;71.05
40918;BME280;26644;50.248;19.032;2023-03-13T04:22:22;97633.91;;;5.94;71.14
40918;BME280;26644;50.248;19.032;2023-03-13T04:25:32;97631.19;;;5.94;71.36
40918;BME280;26644;50.248;19.032;2023-03-13T04:28:38;97633.34;;;5.97;71.18
40918;BME280;26644;50.248;19.032;2023-03-13T04:31:48;97630.34;;;5.99;71.18
40918;BME280;26644;50.248;19.032;2023-03-13T04:35:32;97618.13;;;5.96;71.33
40918;BME280;26644;50.248;19.032;2023-03-13T04:38:51;97618.66;;;5.98;71.13
40918;BME280;26644;50.248;19.032;2023-03-13T04:42:26;97608.31;;;5.95;71.27
40918;BME280;26644;50.248;19.032;2023-03-13T04:45:57;97616.75;;;5.93;71.43
40918;BME280;26644;50.248;19.032;2023-03-13T04:49:41;97604.75;;;5.94;71.39
40918;BME280;26644;50.248;19.032;2023-03-13T04:53:00;97611.31;;;5.93;71.50
40918;BME280;26644;50.248;19.032;2023-03-13T04:56:26;97623.03;;;5.99;71.39
40918;BME280;26644;50.248;19.032;2023-03-13T04:59:53;97613.47;;;5.97;71.13
40918;BME280;26644;50.248;19.032;2023-03-13T05:03:17;97614.59;;;6.06;70.99
40918;BME280;26644;50.248;19.032;2023-03-13T05:06:44;97612.41;;;6.03;71.15
40918;BME280;26644;50.248;19.032;2023-03-13T05:10:16;97603.13;;;6.04;71.09
40918;BME280;26644;50.248;19.032;2023-03-13T05:13:41;97611.56;;;6.02;71.02
40918;BME280;26644;50.248;19.032;2023-03-13T05:17:26;97608.06;;;6.07;71.17
40918;BME280;26644;50.248;19.032;2023-03-13T05:20:49;97600.41;;;6.04;71.42
40918;BME280;26644;50.248;19.032;2023-03-13T05:24:08;97593.59;;;6.01;71.33
40918;BME280;26644;50.248;19.032;2023-03-13T05:27:38;97594.41;;;6.02;71.33
40918;BME280;26644;50.248;19.032;2023-03-13T05:31:01;97607.22;;;6.06;71.34
40918;BME280;26644;50.248;19.032;2023-03-13T05:34:25;97607.78;;;6.03;71.27
40918;BME280;26644;50.248;19.032;2023-03-13T05:37:46;97599.84;;;5.97;71.51
40918;BME280;26644;50.248;19.032;2023-03-13T05:41:15;97606.41;;;6.06;71.50
40918;BME280;26644;50.248;19.032;2023-03-13T05:44:38;97594.94;;;6.04;71.19
40918;BME280;26644;50.248;19.032;2023-03-13T05:48:22;97599.63;;;6.14;70.88
40918;BME280;26644;50.248;19.032;2023-03-13T05:51:49;97600.69;;;6.07;71.13
40918;BME280;26644;50.248;19.032;2023-03-13T05:55:16;97605.06;;;6.14;71.01
40918;BME280;26644;50.248;19.032;2023-03-13T05:58:36;97588.44;;;6.20;70.95
40918;BME280;26644;50.248;19.032;2023-03-13T06:01:42;97593.06;;;6.30;70.96
40918;BME280;26644;50.248;19.032;2023-03-13T06:04:59;97564.44;;;6.33;70.43
40918;BME280;26644;50.248;19.032;2023-03-13T06:08:08;97576.72;;;6.45;70.42
40918;BME280;26644;50.248;19.032;2023-03-13T06:11:14;97578.63;;;6.45;70.51
40918;BME280;26644;50.248;19.032;2023-03-13T06:14:20;97582.97;;;6.61;70.23
40918;BME280;26644;50.248;19.032;2023-03-13T06:17:44;97569.59;;;6.70;69.72
40918;BME280;26644;50.248;19.032;2023-03-13T06:20:55;97562.81;;;6.68;69.61
40918;BME280;26644;50.248;19.032;2023-03-13T06:24:04;97575.31;;;6.79;69.62
40918;BME280;26644;50.248;19.032;2023-03-13T06:27:10;97573.66;;;6.83;69.41
40918;BME280;26644;50.248;19.032;2023-03-13T06:30:15;97576.38;;;6.88;69.05
40918;BME280;26644;50.248;19.032;2023-03-13T06:33:21;97576.94;;;6.90;68.89
40918;BME280;26644;50.248;19.032;2023-03-13T06:36:26;97572.81;;;6.98;68.51
40918;BME280;26644;50.248;19.032;2023-03-13T06:39:34;97581.81;;;6.99;68.23
40918;BME280;26644;50.248;19.032;2023-03-13T06:42:39;97578.53;;;7.02;67.93
40918;BME280;26644;50.248;19.032;2023-03-13T06:45:45;97578.53;;;7.12;67.82
40918;BME280;26644;50.248;19.032;2023-03-13T06:48:50;97584.47;;;7.30;67.42
40918;BME280;26644;50.248;19.032;2023-03-13T06:51:56;97558.78;;;7.41;66.65
40918;BME280;26644;50.248;19.032;2023-03-13T06:55:05;97574.88;;;7.48;66.28
40918;BME280;26644;50.248;19.032;2023-03-13T06:58:11;97562.50;;;7.60;65.98
40918;BME280;26644;50.248;19.032;2023-03-13T07:01:16;97578.78;;;7.81;65.42
40918;BME280;26644;50.248;19.032;2023-03-13T07:04:22;97573.88;;;7.83;65.35
40918;BME280;26644;50.248;19.032;2023-03-13T07:07:27;97561.56;;;7.86;65.32
40918;BME280;26644;50.248;19.032;2023-03-13T07:10:36;97566.28;;;8.09;64.90
40918;BME280;26644;50.248;19.032;2023-03-13T07:13:41;97543.88;;;8.42;64.07
40918;BME280;26644;50.248;19.032;2023-03-13T07:16:47;97567.38;;;9.07;61.78
40918;BME280;26644;50.248;19.032;2023-03-13T07:19:52;97563.78;;;9.55;60.58
40918;BME280;26644;50.248;19.032;2023-03-13T07:22:57;97560.63;;;9.86;59.70
40918;BME280;26644;50.248;19.032;2023-03-13T07:26:07;97553.88;;;9.97;58.74
40918;BME280;26644;50.248;19.032;2023-03-13T07:29:15;97561.34;;;9.72;59.21
40918;BME280;26644;50.248;19.032;2023-03-13T07:32:21;97555.06;;;9.91;59.03
40918;BME280;26644;50.248;19.032;2023-03-13T07:35:27;97551.28;;;10.06;58.48
40918;BME280;26644;50.248;19.032;2023-03-13T07:38:32;97551.50;;;10.28;58.06
40918;BME280;26644;50.248;19.032;2023-03-13T07:41:40;97535.16;;;10.56;57.12
40918;BME280;26644;50.248;19.032;2023-03-13T07:44:52;97541.28;;;10.81;56.83
40918;BME280;26644;50.248;19.032;2023-03-13T07:47:58;97539.78;;;11.31;55.63
40918;BME280;26644;50.248;19.032;2023-03-13T07:51:05;97542.50;;;11.58;54.63
40918;BME280;26644;50.248;19.032;2023-03-13T07:54:11;97524.91;;;11.45;54.14
40918;BME280;26644;50.248;19.032;2023-03-13T07:57:19;97524.53;;;11.75;54.02
40918;BME280;26644;50.248;19.032;2023-03-13T08:00:25;97537.94;;;12.04;52.64
40918;BME280;26644;50.248;19.032;2023-03-13T08:03:30;97517.72;;;12.54;51.75
40918;BME280;26644;50.248;19.032;2023-03-13T08:06:35;97525.44;;;12.75;50.94
40918;BME280;26644;50.248;19.032;2023-03-13T08:09:41;97532.84;;;12.97;50.44
40918;BME280;26644;50.248;19.032;2023-03-13T08:12:49;97537.06;;;13.26;49.29
40918;BME280;26644;50.248;19.032;2023-03-13T08:16:01;97530.72;;;13.25;49.09
40918;BME280;26644;50.248;19.032;2023-03-13T08:19:09;97529.53;;;13.18;49.46
40918;BME280;26644;50.248;19.032;2023-03-13T08:22:14;97518.91;;;12.93;50.19
40918;BME280;26644;50.248;19.032;2023-03-13T08:25:19;97528.91;;;12.89;50.53
40918;BME280;26644;50.248;19.032;2023-03-13T08:28:26;97530.88;;;12.89;50.60
40918;BME280;26644;50.248;19.032;2023-03-13T08:31:34;97520.78;;;13.16;49.69
40918;BME280;26644;50.248;19.032;2023-03-13T08:34:40;97507.47;;;13.58;49.21
40918;BME280;26644;50.248;19.032;2023-03-13T08:37:46;97500.69;;;13.82;48.43
40918;BME280;26644;50.248;19.032;2023-03-13T08:40:55;97518.84;;;14.26;47.91
40918;BME280;26644;50.248;19.032;2023-03-13T08:44:04;97507.81;;;13.83;47.84
40918;BME280;26644;50.248;19.032;2023-03-13T08:47:09;97509.38;;;13.49;48.40
40918;BME280;26644;50.248;19.032;2023-03-13T08:50:15;97518.50;;;13.58;48.45
40918;BME280;26644;50.248;19.032;2023-03-13T08:53:20;97508.59;;;13.48;48.58
40918;BME280;26644;50.248;19.032;2023-03-13T08:56:27;97514.66;;;13.85;48.14
40918;BME280;26644;50.248;19.032;2023-03-13T08:59:36;97509.56;;;13.52;48.32
40918;BME280;26644;50.248;19.032;2023-03-13T09:02:41;97502.88;;;13.36;48.65
40918;BME280;26644;50.248;19.032;2023-03-13T09:05:46;97502.13;;;13.61;49.11
40918;BME280;26644;50.248;19.032;2023-03-13T09:08:51;97500.97;;;13.71;48.26
40918;BME280;26644;50.248;19.032;2023-03-13T09:11:56;97495.16;;;13.82;48.11
40918;BME280;26644;50.248;19.032;2023-03-13T09:15:05;97495.16;;;13.99;48.37
40918;BME280;26644;50.248;19.032;2023-03-13T09:18:11;97484.75;;;14.22;47.97
40918;BME280;26644;50.248;19.032;2023-03-13T09:21:18;97486.53;;;14.36;46.93
40918;BME280;26644;50.248;19.032;2023-03-13T09:24:25;97483.06;;;14.65;46.10
40918;BME280;26644;50.248;19.032;2023-03-13T09:27:30;97468.84;;;14.84;45.87
40918;BME280;26644;50.248;19.032;2023-03-13T09:30:37;97466.50;;;14.56;46.11
40918;BME280;26644;50.248;19.032;2023-03-13T09:33:45;97485.59;;;14.88;45.80
40918;BME280;26644;50.248;19.032;2023-03-13T09:36:51;97466.34;;;15.00;45.29
40918;BME280;26644;50.248;19.032;2023-03-13T09:39:56;97473.22;;;15.24;45.36
40918;BME280;26644;50.248;19.032;2023-03-13T09:43:01;97461.41;;;15.15;44.87
40918;BME280;26644;50.248;19.032;2023-03-13T09:46:16;97461.00;;;14.95;45.51
40918;BME280;26644;50.248;19.032;2023-03-13T09:49:33;97457.47;;;14.86;45.77
40918;BME280;26644;50.248;19.032;2023-03-13T09:52:42;97455.03;;;14.84;45.34
40918;BME280;26644;50.248;19.032;2023-03-13T09:55:46;97436.56;;;14.76;45.01
40918;BME280;26644;50.248;19.032;2023-03-13T09:58:56;97441.97;;;14.64;45.46
40918;BME280;26644;50.248;19.032;2023-03-13T10:02:20;97462.50;;;15.22;44.37
40918;BME280;26644;50.248;19.032;2023-03-13T10:05:32;97425.06;;;14.95;43.88
40918;BME280;26644;50.248;19.032;2023-03-13T10:08:37;97420.91;;;14.50;45.03
40918;BME280;26644;50.248;19.032;2023-03-13T10:11:50;97432.50;;;14.73;45.27
40918;BME280;26644;50.248;19.032;2023-03-13T10:15:18;97435.25;;;14.82;44.83
40918;BME280;26644;50.248;19.032;2023-03-13T10:18:35;97417.34;;;14.32;45.21
40918;BME280;26644;50.248;19.032;2023-03-13T10:21:46;97438.81;;;14.09;45.09
40918;BME280;26644;50.248;19.032;2023-03-13T10:24:58;97427.16;;;13.86;45.97
40918;BME280;26644;50.248;19.032;2023-03-13T10:28:11;97408.84;;;13.55;46.42
40918;BME280;26644;50.248;19.032;2023-03-13T10:31:26;97402.66;;;13.32;47.05
40918;BME280;26644;50.248;19.032;2023-03-13T10:34:52;97397.63;;;13.25;47.92
40918;BME280;26644;50.248;19.032;2023-03-13T10:38:08;97360.16;;;13.24;47.25
40918;BME280;26644;50.248;19.032;2023-03-13T10:41:27;97375.91;;;13.23;47.80
40918;BME280;26644;50.248;19.032;2023-03-13T10:44:35;97378.50;;;13.28;47.68
40918;BME280;26644;50.248;19.032;2023-03-13T10:47:39;97372.97;;;13.28;47.55
40918;BME280;26644;50.248;19.032;2023-03-13T10:50:49;97377.50;;;13.33;47.73
40918;BME280;26644;50.248;19.032;2023-03-13T10:53:57;97343.09;;;13.13;47.52
40918;BME280;26644;50.248;19.032;2023-03-13T10:57:18;97372.81;;;13.25;47.84
40918;BME280;26644;50.248;19.032;2023-03-13T11:00:35;97358.38;;;13.28;48.10
40918;BME280;26644;50.248;19.032;2023-03-13T11:03:44;97348.00;;;13.42;47.36
40918;BME280;26644;50.248;19.032;2023-03-13T11:06:58;97349.31;;;13.27;47.58
40918;BME280;26644;50.248;19.032;2023-03-13T11:10:17;97342.19;;;13.35;47.48
40918;BME280;26644;50.248;19.032;2023-03-13T11:13:30;97344.28;;;13.30;47.42
40918;BME280;26644;50.248;19.032;2023-03-13T11:16:46;97346.22;;;13.29;47.26
40918;BME280;26644;50.248;19.032;2023-03-13T11:20:04;97332.25;;;13.17;47.73
40918;BME280;26644;50.248;19.032;2023-03-13T11:23:27;97307.13;;;13.18;47.29
40918;BME280;26644;50.248;19.032;2023-03-13T11:26:37;97307.28;;;13.04;46.92
40918;BME280;26644;50.248;19.032;2023-03-13T11:30:00;97305.00;;;12.89;47.20
40918;BME280;26644;50.248;19.032;2023-03-13T11:33:28;97303.22;;;12.93;47.23
40918;BME280;26644;50.248;19.032;2023-03-13T11:36:52;97296.09;;;12.92;47.63
40918;BME280;26644;50.248;19.032;2023-03-13T11:40:17;97282.47;;;12.95;48.11
40918;BME280;26644;50.248;19.032;2023-03-13T11:43:45;97303.53;;;12.91;49.58
40918;BME280;26644;50.248;19.032;2023-03-13T11:47:25;97271.75;;;12.68;48.86
40918;BME280;26644;50.248;19.032;2023-03-13T11:50:50;97286.81;;;12.70;48.48
40918;BME280;26644;50.248;19.032;2023-03-13T11:54:19;97262.84;;;12.71;47.69
40918;BME280;26644;50.248;19.032;2023-03-13T11:57:49;97248.59;;;12.60;46.08
40918;BME280;26644;50.248;19.032;2023-03-13T12:01:09;97244.25;;;12.76;46.51
40918;BME280;26644;50.248;19.032;2023-03-13T12:04:24;97244.56;;;12.84;46.07
40918;BME280;26644;50.248;19.032;2023-03-13T12:07:38;97241.00;;;12.83;45.38
40918;BME280;26644;50.248;19.032;2023-03-13T12:11:00;97229.50;;;12.81;44.83
40918;BME280;26644;50.248;19.032;2023-03-13T12:14:17;97233.06;;;12.99;44.63
40918;BME280;26644;50.248;19.032;2023-03-13T12:17:32;97244.53;;;13.19;44.36
40918;BME280;26644;50.248;19.032;2023-03-13T12:20:43;97244.91;;;13.26;44.11
40918;BME280;26644;50.248;19.032;2023-03-13T12:24:05;97244.06;;;13.43;44.14
40918;BME280;26644;50.248;19.032;2023-03-13T12:27:20;97247.28;;;13.45;43.42
40918;BME280;26644;50.248;19.032;2023-03-13T12:30:43;97220.72;;;13.32;43.21
40918;BME280;26644;50.248;19.032;2023-03-13T12:33:58;97221.06;;;13.13;43.93
40918;BME280;26644;50.248;19.032;2023-03-13T12:37:20;97233.50;;;13.19;43.84
40918;BME280;26644;50.248;19.032;2023-03-13T12:40:40;97243.09;;;13.04;44.59
40918;BME280;26644;50.248;19.032;2023-03-13T12:43:54;97253.94;;;13.00;44.93
40918;BME280;26644;50.248;19.032;2023-03-13T12:47:08;97265.78;;;12.83;45.96
40918;BME280;26644;50.248;19.032;2023-03-13T12:50:39;97238.34;;;12.43;46.31
40918;BME280;26644;50.248;19.032;2023-03-13T12:54:28;97246.88;;;12.24;46.70
40918;BME280;26644;50.248;19.032;2023-03-13T13:01:45;97221.16;;;11.80;48.99
40918;BME280;26644;50.248;19.032;2023-03-13T13:05:00;97237.81;;;11.83;49.08
40918;BME280;26644;50.248;19.032;2023-03-13T13:08:24;97255.75;;;11.81;50.18
40918;BME280;26644;50.248;19.032;2023-03-13T13:11:55;97254.56;;;11.73;51.17
40918;BME280;26644;50.248;19.032;2023-03-13T13:15:15;97238.25;;;11.68;51.96
40918;BME280;26644;50.248;19.032;2023-03-13T13:18:26;97238.50;;;11.57;52.23
40918;BME280;26644;50.248;19.032;2023-03-13T13:21:34;97227.22;;;11.36;52.87
40918;BME280;26644;50.248;19.032;2023-03-13T13:24:48;97215.72;;;11.34;53.09
40918;BME280;26644;50.248;19.032;2023-03-13T13:27:54;97188.94;;;11.17;53.35
40918;BME280;26644;50.248;19.032;2023-03-13T13:31:01;97211.19;;;11.30;54.26
40918;BME280;26644;50.248;19.032;2023-03-13T13:35:01;97204.25;;;11.32;54.49
40918;BME280;26644;50.248;19.032;2023-03-13T13:38:32;97208.13;;;11.31;54.75
40918;BME280;26644;50.248;19.032;2023-03-13T13:41:41;97205.03;;;11.24;55.18
40918;BME280;26644;50.248;19.032;2023-03-13T13:44:57;97176.97;;;11.13;55.36
40918;BME280;26644;50.248;19.032;2023-03-13T13:48:25;97193.78;;;11.11;55.88
40918;BME280;26644;50.248;19.032;2023-03-13T13:51:35;97176.56;;;10.97;56.24
40918;BME280;26644;50.248;19.032;2023-03-13T13:54:57;97185.31;;;10.99;56.15
40918;BME280;26644;50.248;19.032;2023-03-13T13:58:09;97185.19;;;10.82;56.71
40918;BME280;26644;50.248;19.032;2023-03-13T14:01:16;97189.69;;;10.77;56.92
40918;BME280;26644;50.248;19.032;2023-03-13T14:04:27;97191.41;;;10.73;56.54
40918;BME280;26644;50.248;19.032;2023-03-13T14:07:51;97184.66;;;10.57;56.83
40918;BME280;26644;50.248;19.032;2023-03-13T14:11:22;97170.69;;;10.53;57.11
40918;BME280;26644;50.248;19.032;2023-03-13T14:14:31;97171.94;;;10.61;56.98
40918;BME280;26644;50.248;19.032;2023-03-13T14:17:39;97170.41;;;10.55;57.42
40918;BME280;26644;50.248;19.032;2023-03-13T14:20:53;97186.44;;;10.61;58.33
40918;BME280;26644;50.248;19.032;2023-03-13T14:24:01;97185.06;;;10.50;60.11
40918;BME280;26644;50.248;19.032;2023-03-13T14:27:19;97168.47;;;10.19;60.80
40918;BME280;26644;50.248;19.032;2023-03-13T14:30:24;97158.97;;;9.88;62.17
40918;BME280;26644;50.248;19.032;2023-03-13T14:33:29;97159.78;;;9.61;63.32
40918;BME280;26644;50.248;19.032;2023-03-13T14:36:46;97161.53;;;9.57;63.56
40918;BME280;26644;50.248;19.032;2023-03-13T14:39:51;97171.34;;;9.58;63.64
40918;BME280;26644;50.248;19.032;2023-03-13T14:43:01;97165.75;;;9.63;63.61
40918;BME280;26644;50.248;19.032;2023-03-13T14:46:21;97164.03;;;9.53;63.15
40918;BME280;26644;50.248;19.032;2023-03-13T14:49:34;97168.00;;;9.61;63.07
40918;BME280;26644;50.248;19.032;2023-03-13T14:52:46;97155.44;;;9.60;62.41
40918;BME280;26644;50.248;19.032;2023-03-13T14:56:11;97156.56;;;9.73;62.53
40918;BME280;26644;50.248;19.032;2023-03-13T14:59:23;97148.50;;;9.76;61.89
40918;BME280;26644;50.248;19.032;2023-03-13T15:02:30;97145.59;;;9.73;62.11
40918;BME280;26644;50.248;19.032;2023-03-13T15:05:36;97134.00;;;9.76;61.48
40918;BME280;26644;50.248;19.032;2023-03-13T15:08:43;97127.47;;;9.86;61.53
40918;BME280;26644;50.248;19.032;2023-03-13T15:11:55;97129.22;;;9.95;60.80
40918;BME280;26644;50.248;19.032;2023-03-13T15:15:07;97131.22;;;10.04;60.95
40918;BME280;26644;50.248;19.032;2023-03-13T15:18:18;97129.56;;;10.17;60.54
40918;BME280;26644;50.248;19.032;2023-03-13T15:21:29;97128.22;;;10.28;60.02
40918;BME280;26644;50.248;19.032;2023-03-13T15:24:37;97126.56;;;10.27;59.93
40918;BME280;26644;50.248;19.032;2023-03-13T15:27:43;97119.75;;;10.38;59.59
40918;BME280;26644;50.248;19.032;2023-03-13T15:30:51;97116.00;;;10.34;59.65
40918;BME280;26644;50.248;19.032;2023-03-13T15:33:59;97121.69;;;10.38;59.34
40918;BME280;26644;50.248;19.032;2023-03-13T15:37:04;97109.88;;;10.37;59.30
40918;BME280;26644;50.248;19.032;2023-03-13T15:40:14;97122.69;;;10.42;59.60
40918;BME280;26644;50.248;19.032;2023-03-13T15:43:20;97125.56;;;10.37;59.24
40918;BME280;26644;50.248;19.032;2023-03-13T15:46:29;97126.19;;;10.34;59.35
40918;BME280;26644;50.248;19.032;2023-03-13T15:49:35;97113.94;;;10.40;59.37
40918;BME280;26644;50.248;19.032;2023-03-13T15:52:41;97122.50;;;10.38;59.18
40918;BME280;26644;50.248;19.032;2023-03-13T15:55:46;97119.94;;;10.42;59.22
40918;BME280;26644;50.248;19.032;2023-03-13T15:58:54;97123.44;;;10.34;59.51
40918;BME280;26644;50.248;19.032;2023-03-13T16:02:02;97133.09;;;10.31;59.32
40918;BME280;26644;50.248;19.032;2023-03-13T16:05:16;97125.22;;;10.38;59.33
40918;BME280;26644;50.248;19.032;2023-03-13T16:08:22;97118.06;;;10.28;59.53
40918;BME280;26644;50.248;19.032;2023-03-13T16:11:29;97124.66;;;10.27;59.53
40918;BME280;26644;50.248;19.032;2023-03-13T16:14:35;97121.28;;;10.31;59.38
40918;BME280;26644;50.248;19.032;2023-03-13T16:17:44;97116.91;;;10.29;59.68
40918;BME280;26644;50.248;19.032;2023-03-13T16:20:50;97115.31;;;10.28;59.60
40918;BME280;26644;50.248;19.032;2023-03-13T16:23:56;97110.94;;;10.27;59.74
40918;BME280;26644;50.248;19.032;2023-03-13T16:27:01;97100.97;;;10.32;59.91
40918;BME280;26644;50.248;19.032;2023-03-13T16:30:15;97099.66;;;10.29;59.74
40918;BME280;26644;50.248;19.032;2023-03-13T16:33:24;97096.28;;;10.32;59.87
40918;BME280;26644;50.248;19.032;2023-03-13T16:36:31;97103.41;;;10.33;60.01
40918;BME280;26644;50.248;19.032;2023-03-13T16:39:36;97096.28;;;10.32;59.89
40918;BME280;26644;50.248;19.032;2023-03-13T16:42:42;97093.97;;;10.25;60.28
40918;BME280;26644;50.248;19.032;2023-03-13T16:45:47;97094.50;;;10.27;60.17
40918;BME280;26644;50.248;19.032;2023-03-13T16:48:55;97087.25;;;10.32;60.22
40918;BME280;26644;50.248;19.032;2023-03-13T16:52:00;97093.25;;;10.34;59.91
40918;BME280;26644;50.248;19.032;2023-03-13T16:55:06;97080.78;;;10.27;59.98